Time;durP1;ratioP1;P1;durP2;ratioP2;P2;SDS_P1;SDS_P2;PMS_P1;PMS_P2;Temp;Humidity;BMP_temperature;BMP_pressure;BME280_temperature;BME280_humidity;BME280_pressure;Samples;Min_cycle;Max_cycle;Signal;HPM_P1;HPM_P2
2022/03/29 00:01:59;;;;;;;17.98;4.42;;;;;;;10.65;54.77;101746.21;1771127;80;21062;-67
2022/03/29 00:04:26;;;;;;;25.00;4.25;;;;;;;10.68;54.77;101743.57;1771767;80;21018;-67
2022/03/29 00:06:53;;;;;;;12.93;3.12;;;;;;;10.68;54.84;101737.06;1768657;80;21014;-66
2022/03/29 00:09:22;;;;;;;13.03;3.65;;;;;;;10.69;54.82;101735.33;1770767;80;21069;-66
2022/03/29 00:11:51;;;;;;;19.55;3.87;;;;;;;10.70;54.86;101738.34;1775008;80;21558;-67
2022/03/29 00:14:18;;;;;;;14.50;3.35;;;;;;;10.68;54.95;101730.55;1774473;80;21026;-67
2022/03/29 00:16:45;;;;;;;13.38;2.92;;;;;;;10.68;55.02;101730.55;1769147;80;21034;-67
2022/03/29 00:19:13;;;;;;;23.73;5.35;;;;;;;10.68;55.06;101723.17;1771658;80;21053;-67
2022/03/29 00:21:40;;;;;;;11.40;2.90;;;;;;;10.67;55.08;101721.03;1772075;80;21057;-67
2022/03/29 00:24:08;;;;;;;17.80;3.58;;;;;;;10.67;55.11;101718.44;1772583;80;21038;-67
2022/03/29 00:26:36;;;;;;;15.23;3.27;;;;;;;10.66;55.14;101714.08;1768454;80;21546;-67
2022/03/29 00:29:05;;;;;;;17.90;3.35;;;;;;;10.65;55.19;101705.87;1775019;80;21542;-67
2022/03/29 00:31:32;;;;;;;11.15;3.42;;;;;;;10.64;55.26;101705.42;1770795;80;21006;-67
2022/03/29 00:34:00;;;;;;;14.95;3.37;;;;;;;10.63;55.28;101700.64;1775225;80;21518;-67
2022/03/29 00:36:28;;;;;;;16.62;3.55;;;;;;;10.63;55.29;101697.20;1775161;80;21547;-67
2022/03/29 00:38:55;;;;;;;16.05;4.37;;;;;;;10.64;55.32;101695.02;1759887;80;21030;-67
2022/03/29 00:41:23;;;;;;;17.07;3.47;;;;;;;10.65;55.27;101694.16;1771685;80;21034;-67
2022/03/29 00:43:50;;;;;;;18.40;4.28;;;;;;;10.67;55.25;101689.80;1775068;80;21006;-66
2022/03/29 00:46:17;;;;;;;15.78;3.37;;;;;;;10.67;55.33;101688.50;1773989;80;21065;-67
2022/03/29 00:48:47;;;;;;;11.95;3.62;;;;;;;10.69;55.34;101680.23;1771976;80;21081;-67
2022/03/29 00:51:14;;;;;;;22.15;5.15;;;;;;;10.71;55.34;101674.58;1772092;80;21019;-67
2022/03/29 00:53:41;;;;;;;15.65;3.20;;;;;;;10.72;55.41;101669.78;1771365;80;21070;-67
2022/03/29 00:56:09;;;;;;;14.93;3.25;;;;;;;10.72;55.46;101667.19;1772051;80;21109;-67
2022/03/29 00:58:36;;;;;;;17.55;3.98;;;;;;;10.73;55.39;101667.63;1772308;80;21025;-67
2022/03/29 01:01:04;;;;;;;15.08;3.87;;;;;;;10.74;55.37;101655.02;1768515;80;20994;-67
2022/03/29 01:03:31;;;;;;;14.38;4.00;;;;;;;10.74;55.39;101656.32;1768133;80;21046;-67
2022/03/29 01:05:59;;;;;;;20.50;4.03;;;;;;;10.75;55.46;101655.46;1762151;81;21026;-67
2022/03/29 01:08:27;;;;;;;19.73;4.10;;;;;;;10.72;55.52;101643.75;1765100;81;20987;-67
2022/03/29 01:10:55;;;;;;;19.77;3.95;;;;;;;10.70;55.64;101636.40;1757320;81;21014;-67
2022/03/29 01:13:23;;;;;;;22.20;3.65;;;;;;;10.68;55.68;101631.64;1763123;81;21017;-68
2022/03/29 01:15:50;;;;;;;19.77;4.15;;;;;;;10.69;55.70;101625.58;1762264;81;21538;-67
2022/03/29 01:18:20;;;;;;;18.60;3.47;;;;;;;10.70;55.75;101635.52;1769287;81;21035;-68
2022/03/29 01:20:49;;;;;;;13.20;3.77;;;;;;;10.71;55.79;101642.48;1764300;81;20971;-67
2022/03/29 01:23:17;;;;;;;19.25;3.30;;;;;;;10.69;55.89;101630.78;1767270;81;21018;-67
2022/03/29 01:25:46;;;;;;;24.27;5.03;;;;;;;10.70;55.94;101636.40;1766612;81;21023;-67
2022/03/29 01:28:14;;;;;;;19.65;4.08;;;;;;;10.69;55.90;101628.18;1764679;81;21483;-67
2022/03/29 01:30:41;;;;;;;17.73;4.37;;;;;;;10.70;55.93;101629.02;1763110;81;21483;-67
2022/03/29 01:33:09;;;;;;;17.15;4.15;;;;;;;10.69;55.96;101624.28;1757311;81;21491;-67
2022/03/29 01:35:36;;;;;;;12.90;3.47;;;;;;;10.67;55.97;101616.92;1764926;81;21015;-67
2022/03/29 01:38:04;;;;;;;19.75;4.35;;;;;;;10.67;56.01;101610.41;1763700;81;21050;-67
2022/03/29 01:40:31;;;;;;;16.42;3.50;;;;;;;10.69;55.97;101618.20;1765056;81;21569;-67
2022/03/29 01:43:02;;;;;;;16.25;3.42;;;;;;;10.67;56.04;101607.81;1758167;81;21042;-67
2022/03/29 01:45:31;;;;;;;15.08;3.70;;;;;;;10.66;56.08;101602.16;1763484;81;21037;-67
2022/03/29 01:48:00;;;;;;;18.15;3.72;;;;;;;10.63;56.23;101600.44;1763572;81;21066;-67
2022/03/29 01:50:27;;;;;;;15.40;4.47;;;;;;;10.63;56.24;101595.23;1761219;81;21038;-67
2022/03/29 01:52:54;;;;;;;17.65;4.08;;;;;;;10.63;56.34;101586.13;1766272;81;21507;-67
2022/03/29 01:55:21;;;;;;;19.77;4.35;;;;;;;10.65;56.38;101587.44;1766623;81;21534;-67
2022/03/29 01:57:49;;;;;;;19.17;5.03;;;;;;;10.65;56.41;101590.05;1763426;81;21570;-67
2022/03/29 02:00:34;;;;;;;16.17;4.45;;;;;;;10.64;56.54;101585.70;1763871;81;21002;-67
2022/03/29 02:03:05;;;;;;;17.25;3.75;;;;;;;10.62;56.60;101583.12;1763659;81;21070;-67
2022/03/29 02:05:33;;;;;;;14.35;3.90;;;;;;;10.62;56.72;101574.44;1763230;81;21514;-67
2022/03/29 02:08:01;;;;;;;12.15;3.37;;;;;;;10.60;56.84;101564.48;1754214;81;21523;-67
2022/03/29 02:10:30;;;;;;;15.10;3.47;;;;;;;10.60;56.97;101567.08;1764573;81;21083;-67
2022/03/29 02:12:58;;;;;;;14.00;3.92;;;;;;;10.58;57.10;101563.63;1763796;81;21062;-67
2022/03/29 02:15:27;;;;;;;20.20;4.03;;;;;;;10.57;57.23;101558.02;1751819;81;21030;-67
2022/03/29 02:17:55;;;;;;;19.57;3.67;;;;;;;10.57;57.31;101552.81;1766694;81;21061;-67
2022/03/29 02:20:26;;;;;;;21.70;4.53;;;;;;;10.59;57.28;101556.27;1766475;81;21566;-67
2022/03/29 02:22:53;;;;;;;16.87;4.12;;;;;;;10.60;57.27;101552.77;1764415;81;21605;-67
2022/03/29 02:25:21;;;;;;;32.38;4.92;;;;;;;10.60;57.34;101537.16;1763550;81;21023;-67
2022/03/29 02:27:49;;;;;;;14.43;3.42;;;;;;;10.60;57.40;101535.42;1752678;81;20987;-67
2022/03/29 02:30:17;;;;;;;14.35;3.98;;;;;;;10.61;57.46;101542.80;1766737;81;21038;-68
2022/03/29 02:32:46;;;;;;;12.07;3.47;;;;;;;10.61;57.45;101539.73;1754607;81;20999;-67
2022/03/29 02:35:13;;;;;;;22.05;3.72;;;;;;;10.63;57.49;101537.14;1765013;81;21034;-67
2022/03/29 02:37:42;;;;;;;13.65;4.35;;;;;;;10.63;57.49;101538.44;1762409;81;21533;-67
2022/03/29 02:40:11;;;;;;;15.72;3.58;;;;;;;10.63;57.57;101537.14;1760554;81;21010;-68
2022/03/29 02:42:48;;;;;;;19.12;4.10;;;;;;;10.62;57.63;101530.20;1758763;81;21494;-67
2022/03/29 02:45:18;;;;;;;17.62;4.12;;;;;;;10.62;57.66;101536.70;1764460;81;21002;-67
2022/03/29 02:47:49;;;;;;;14.37;3.83;;;;;;;10.62;57.65;101534.09;1773389;81;21474;-67
2022/03/29 02:50:17;;;;;;;23.20;4.03;;;;;;;10.63;57.71;101531.94;1766713;81;21015;-67
2022/03/29 02:52:53;;;;;;;21.68;4.53;;;;;;;10.63;57.70;101529.33;1766547;81;21514;-68
2022/03/29 02:55:24;;;;;;;21.85;5.15;;;;;;;10.61;57.76;101532.39;1707815;83;21128;-68
2022/03/29 02:57:51;;;;;;;20.27;4.20;;;;;;;10.61;57.90;101532.39;1708399;83;21033;-67
2022/03/29 03:00:18;;;;;;;16.17;4.17;;;;;;;10.63;57.87;101534.54;1709574;83;21394;-68
2022/03/29 03:02:48;;;;;;;14.18;3.85;;;;;;;10.63;57.83;101529.33;1705727;83;21139;-67
2022/03/29 03:05:16;;;;;;;12.60;3.67;;;;;;;10.63;57.89;101526.73;1686815;84;21562;-67
2022/03/29 03:07:45;;;;;;;16.25;3.75;;;;;;;10.64;57.93;101528.44;1687300;84;21132;-67
2022/03/29 03:10:14;;;;;;;18.62;4.17;;;;;;;10.62;58.00;101522.39;1692588;84;21039;-68
2022/03/29 03:12:44;;;;;;;17.12;3.55;;;;;;;10.61;58.09;101520.68;1695426;84;21023;-68
2022/03/29 03:15:13;;;;;;;22.52;3.95;;;;;;;10.62;58.16;101519.78;1690097;84;21070;-68
2022/03/29 03:17:41;;;;;;;20.90;4.05;;;;;;;10.61;58.18;101525.88;1688153;84;21042;-68
2022/03/29 03:20:09;;;;;;;21.10;3.92;;;;;;;10.60;58.26;101526.74;1691061;84;21050;-68
2022/03/29 03:22:37;;;;;;;19.60;4.42;;;;;;;10.60;58.35;101517.64;1690224;84;21062;-68
2022/03/29 03:25:05;;;;;;;13.40;3.80;;;;;;;10.60;58.31;101520.23;1690561;84;21095;-68
2022/03/29 03:27:34;;;;;;;19.92;4.50;;;;;;;10.62;58.34;101523.25;1690414;84;21003;-68
2022/03/29 03:30:03;;;;;;;15.63;3.62;;;;;;;10.61;58.47;101518.08;1689489;84;21488;-68
2022/03/29 03:32:32;;;;;;;22.32;4.78;;;;;;;10.63;58.42;101516.32;1691969;84;21026;-68
2022/03/29 03:35:01;;;;;;;21.93;4.03;;;;;;;10.63;58.40;101518.92;1687463;84;21058;-68
2022/03/29 03:37:30;;;;;;;14.90;3.58;;;;;;;10.61;58.45;101518.08;1687108;84;21535;-67
2022/03/29 03:39:57;;;;;;;19.10;4.08;;;;;;;10.61;58.54;101515.47;1694747;84;21054;-67
2022/03/29 03:42:25;;;;;;;21.07;4.03;;;;;;;10.61;58.59;101511.11;1692271;84;21114;-67
2022/03/29 03:44:52;;;;;;;12.95;3.92;;;;;;;10.62;58.59;101510.67;1687420;84;21027;-67
2022/03/29 03:47:19;;;;;;;22.52;3.72;;;;;;;10.61;58.66;101498.09;1688572;84;21007;-67
2022/03/29 03:49:46;;;;;;;20.85;4.35;;;;;;;10.63;58.58;101499.41;1689674;84;20998;-68
2022/03/29 03:52:13;;;;;;;12.65;4.12;;;;;;;10.61;58.73;101495.95;1724480;82;21056;-67
2022/03/29 03:54:42;;;;;;;22.15;4.53;;;;;;;10.60;58.85;101495.52;1737391;82;21049;-67
2022/03/29 03:57:09;;;;;;;17.30;3.65;;;;;;;10.59;58.86;101494.64;1743561;82;21037;-67
2022/03/29 03:59:38;;;;;;;22.50;4.62;;;;;;;10.60;59.07;101495.52;1740611;82;21584;-67
2022/03/29 04:02:06;;;;;;;22.15;4.30;;;;;;;10.61;59.06;101499.86;1738506;82;21019;-67
2022/03/29 04:04:33;;;;;;;23.87;4.58;;;;;;;10.61;59.08;101492.89;1760472;81;21161;-68
2022/03/29 04:07:00;;;;;;;28.42;4.97;;;;;;;10.64;59.07;101485.49;1758584;81;21050;-68
2022/03/29 04:09:28;;;;;;;17.07;4.72;;;;;;;10.65;59.14;101485.94;1765236;81;21078;-68
2022/03/29 04:11:56;;;;;;;23.62;4.45;;;;;;;10.67;59.13;101486.78;1764068;81;21035;-68
2022/03/29 04:14:24;;;;;;;16.17;4.37;;;;;;;10.68;59.07;101481.11;1765572;81;21003;-68
2022/03/29 04:16:52;;;;;;;20.17;4.75;;;;;;;10.71;59.12;101487.17;1755623;81;21082;-68
2022/03/29 04:19:19;;;;;;;23.15;4.95;;;;;;;10.73;59.11;101477.60;1763777;81;21066;-68
2022/03/29 04:21:47;;;;;;;24.37;6.15;;;;;;;10.75;59.13;101477.14;1766647;81;21087;-67
2022/03/29 04:24:15;;;;;;;24.43;3.90;;;;;;;10.79;59.14;101477.53;1766563;81;21043;-68
2022/03/29 04:26:44;;;;;;;23.50;4.67;;;;;;;10.81;59.17;101482.28;1765581;81;21070;-68
2022/03/29 04:29:11;;;;;;;16.90;4.00;;;;;;;10.85;59.16;101483.97;1763681;81;21073;-68
2022/03/29 04:31:39;;;;;;;23.65;4.72;;;;;;;10.90;59.12;101488.66;1769121;81;21031;-68
2022/03/29 04:34:06;;;;;;;20.25;4.85;;;;;;;10.92;58.99;101485.61;1767593;81;21502;-68
2022/03/29 04:36:34;;;;;;;26.15;5.45;;;;;;;10.94;59.01;101478.64;1766499;81;21019;-68
2022/03/29 04:39:01;;;;;;;21.35;4.92;;;;;;;10.98;59.10;101475.15;1750454;80;21054;-68
2022/03/29 04:41:29;;;;;;;22.93;4.35;;;;;;;11.02;59.02;101474.66;1773024;81;21066;-67
2022/03/29 04:43:56;;;;;;;17.80;4.92;;;;;;;11.05;58.80;101476.78;1766961;81;20987;-67
2022/03/29 04:46:25;;;;;;;21.50;4.62;;;;;;;11.04;58.84;101477.67;1766713;81;21447;-68
2022/03/29 04:48:52;;;;;;;15.35;4.85;;;;;;;11.04;58.88;101467.26;1764135;81;21050;-68
2022/03/29 04:51:20;;;;;;;18.48;4.70;;;;;;;11.03;58.94;101470.73;1764379;81;21038;-67
2022/03/29 04:53:47;;;;;;;22.95;5.12;;;;;;;11.01;59.01;101467.28;1762937;81;21050;-67
2022/03/29 04:56:14;;;;;;;15.88;4.08;;;;;;;11.01;59.06;101455.56;1763710;81;21074;-67
2022/03/29 04:58:42;;;;;;;26.40;5.30;;;;;;;11.01;59.15;101463.81;1763263;81;21030;-67
2022/03/29 05:01:10;;;;;;;18.52;5.03;;;;;;;11.01;59.17;101461.20;1765470;81;21042;-67
2022/03/29 05:03:37;;;;;;;19.90;4.95;;;;;;;11.01;59.24;101452.95;1766601;81;21081;-67
2022/03/29 05:06:04;;;;;;;20.45;4.50;;;;;;;11.02;59.31;101458.61;1762210;81;21023;-67
2022/03/29 05:08:32;;;;;;;17.73;4.85;;;;;;;11.01;59.31;101452.95;1766363;81;21018;-68
2022/03/29 05:11:01;;;;;;;29.75;5.50;;;;;;;11.02;59.28;101453.40;1764161;81;21015;-68
2022/03/29 05:13:28;;;;;;;15.10;4.37;;;;;;;11.02;59.32;101456.00;1763303;81;21027;-67
2022/03/29 05:15:57;;;;;;;13.25;4.15;;;;;;;11.03;59.36;101449.89;1763688;81;21050;-68
2022/03/29 05:18:24;;;;;;;16.45;4.53;;;;;;;11.03;59.40;101445.98;1763325;81;20995;-68
2022/03/29 05:20:53;;;;;;;19.45;4.65;;;;;;;11.03;59.43;101444.69;1762944;81;21014;-67
2022/03/29 05:23:22;;;;;;;17.85;4.67;;;;;;;11.04;59.47;101445.12;1765374;81;21593;-68
2022/03/29 05:25:50;;;;;;;19.00;4.95;;;;;;;11.07;59.50;101455.92;1766612;81;21105;-68
2022/03/29 05:28:17;;;;;;;17.75;4.65;;;;;;;11.10;59.50;101459.37;1766646;81;21089;-68
2022/03/29 05:30:44;;;;;;;20.68;5.60;;;;;;;11.12;59.48;101462.81;1764178;81;21038;-67
2022/03/29 05:33:15;;;;;;;18.15;4.75;;;;;;;11.14;59.45;101466.26;1765247;81;21081;-68
2022/03/29 05:35:43;;;;;;;23.60;4.20;;;;;;;11.18;59.43;101462.73;1764849;81;21038;-68
2022/03/29 05:38:10;;;;;;;22.58;5.97;;;;;;;11.21;59.45;101466.58;1766611;81;21570;-67
2022/03/29 05:40:38;;;;;;;20.72;4.40;;;;;;;11.25;59.42;101457.84;1766613;81;21066;-67
2022/03/29 05:43:10;;;;;;;22.00;4.70;;;;;;;11.29;59.42;101464.73;1762172;80;21010;-68
2022/03/29 05:45:40;;;;;;;17.90;4.10;;;;;;;11.34;59.39;101472.06;1763863;80;21022;-67
2022/03/29 05:50:55;;;;;;;19.27;4.67;;;;;;;11.42;59.07;101470.21;1759790;81;21014;-67
2022/03/29 05:53:23;;;;;;;14.33;4.00;;;;;;;11.44;59.03;101461.93;1763041;81;21078;-68
2022/03/29 05:55:51;;;;;;;22.77;5.47;;;;;;;11.44;59.04;101463.23;1763724;81;21030;-68
2022/03/29 05:58:18;;;;;;;16.12;4.35;;;;;;;11.45;59.05;101459.76;1759679;81;21038;-67
2022/03/29 06:00:46;;;;;;;22.85;4.15;;;;;;;11.47;58.99;101457.13;1768379;81;21062;-67
2022/03/29 06:03:14;;;;;;;15.75;4.25;;;;;;;11.48;58.96;101459.70;1752481;80;21026;-68
2022/03/29 06:05:42;;;;;;;19.87;4.83;;;;;;;11.51;58.95;101464.45;1761333;80;21085;-67
2022/03/29 06:08:10;;;;;;;17.80;4.30;;;;;;;11.53;58.74;101464.85;1763904;80;20998;-68
2022/03/29 06:10:37;;;;;;;21.07;5.00;;;;;;;11.52;58.76;101465.72;1759847;80;21007;-68
2022/03/29 06:13:08;;;;;;;16.40;4.53;;;;;;;11.54;58.83;101454.00;1778391;80;21010;-68
2022/03/29 06:15:36;;;;;;;15.00;4.47;;;;;;;11.56;58.84;101445.71;1771032;80;21014;-68
2022/03/29 06:18:06;;;;;;;21.27;5.58;;;;;;;11.58;58.71;101437.42;1771852;80;21600;-68
2022/03/29 06:20:35;;;;;;;16.07;4.53;;;;;;;11.59;58.72;101432.61;1771357;80;21022;-68
2022/03/29 06:23:02;;;;;;;17.85;4.30;;;;;;;11.64;58.57;101436.03;1781159;80;21051;-67
2022/03/29 06:25:32;;;;;;;13.32;3.92;;;;;;;11.66;58.54;101436.86;1775869;80;21050;-67
2022/03/29 06:28:01;;;;;;;22.05;4.58;;;;;;;11.68;58.57;101440.34;1774916;80;20975;-67
2022/03/29 06:30:29;;;;;;;19.35;4.92;;;;;;;11.71;58.52;101437.67;1772954;80;20990;-68
2022/03/29 06:32:56;;;;;;;14.15;4.20;;;;;;;11.75;58.38;101438.04;1762205;80;21486;-68
2022/03/29 06:35:28;;;;;;;23.20;4.83;;;;;;;11.73;58.37;101430.69;1774900;80;21010;-68
2022/03/29 06:37:58;;;;;;;13.13;3.98;;;;;;;11.70;58.52;101420.33;1770617;80;21073;-68
2022/03/29 06:40:27;;;;;;;22.50;4.75;;;;;;;11.70;58.52;101424.23;1770420;80;21481;-67
2022/03/29 06:42:57;;;;;;;13.45;4.62;;;;;;;11.71;58.69;101424.20;1764476;80;21058;-68
2022/03/29 06:45:25;;;;;;;19.67;4.62;;;;;;;11.77;58.72;101418.02;1766522;80;20986;-67
2022/03/29 06:47:54;;;;;;;23.35;4.92;;;;;;;11.83;58.63;101421.86;1772278;80;21026;-67
2022/03/29 06:50:23;;;;;;;16.90;4.97;;;;;;;11.88;58.59;101420.89;1774969;80;20983;-66
2022/03/29 06:52:55;;;;;;;20.40;5.28;;;;;;;11.96;58.41;101419.01;1774016;80;21081;-67
2022/03/29 06:55:22;;;;;;;23.95;4.92;;;;;;;12.04;58.35;101414.52;1765734;80;21033;-67
2022/03/29 06:57:49;;;;;;;20.02;5.20;;;;;;;12.15;58.07;101406.52;1771736;80;21097;-67
2022/03/29 07:00:17;;;;;;;15.25;5.28;;;;;;;12.23;57.93;101401.58;1767647;80;21030;-66
2022/03/29 07:02:45;;;;;;;12.80;5.08;;;;;;;12.36;57.71;101410.48;1765008;80;21041;-66
2022/03/29 07:05:12;;;;;;;20.75;4.83;;;;;;;12.49;57.36;101415.90;1767989;80;21120;-67
2022/03/29 07:07:39;;;;;;;21.27;5.55;;;;;;;12.58;57.13;101414.40;1764106;81;20983;-67
2022/03/29 07:12:59;;;;;;;18.85;5.62;;;;;;;12.79;56.70;101410.06;1755389;81;20993;-67
2022/03/29 07:15:28;;;;;;;17.30;4.50;;;;;;;12.92;56.29;101409.77;1699833;84;21027;-66
2022/03/29 07:17:55;;;;;;;20.17;5.05;;;;;;;13.00;55.78;101414.38;1761870;80;20999;-66
2022/03/29 07:20:25;;;;;;;12.33;4.85;;;;;;;13.06;55.52;101418.20;1763532;81;21006;-66
2022/03/29 07:22:53;;;;;;;27.07;5.33;;;;;;;13.12;55.30;101417.67;1742510;81;20943;-67
2022/03/29 07:25:20;;;;;;;22.48;4.53;;;;;;;13.16;55.23;101404.52;1765294;80;21033;-66
2022/03/29 07:27:55;;;;;;;19.48;4.75;;;;;;;13.22;55.12;101404.81;1762542;81;21007;-66
2022/03/29 07:30:22;;;;;;;15.05;4.87;;;;;;;13.26;54.70;101405.16;1769628;81;21038;-66
2022/03/29 07:32:57;;;;;;;15.75;4.15;;;;;;;13.27;54.52;101402.97;1758804;81;21086;-67
2022/03/29 07:35:26;;;;;;;11.73;4.37;;;;;;;13.28;54.49;101405.98;1756627;81;20996;-66
2022/03/29 07:37:53;;;;;;;10.40;3.98;;;;;;;13.27;54.43;101399.05;1763499;81;21014;-65
2022/03/29 07:40:25;;;;;;;15.55;4.47;;;;;;;13.25;54.60;101394.30;1763132;81;21006;-66
2022/03/29 07:42:53;;;;;;;20.90;4.65;;;;;;;13.27;54.50;101399.05;1752470;81;21011;-65
2022/03/29 07:45:20;;;;;;;17.87;5.00;;;;;;;13.26;54.28;101396.00;1765284;81;21043;-66
2022/03/29 07:47:51;;;;;;;13.10;3.85;;;;;;;13.23;54.30;101390.87;1765915;81;20983;-65
2022/03/29 07:50:18;;;;;;;19.95;6.95;;;;;;;13.22;54.21;101389.13;1767001;81;21495;-66
2022/03/29 07:52:46;;;;;;;23.67;5.20;;;;;;;13.19;54.28;101389.22;1766969;81;21026;-66
2022/03/29 07:55:14;;;;;;;15.98;4.33;;;;;;;13.16;54.34;101381.43;1764422;81;21113;-66
2022/03/29 07:57:42;;;;;;;13.68;4.37;;;;;;;13.13;54.41;101381.52;1764317;81;21040;-66
2022/03/29 08:00:31;;;;;;;20.27;5.08;;;;;;;13.11;54.67;101372.37;1759212;81;21509;-66
2022/03/29 08:03:05;;;;;;;12.37;4.87;;;;;;;13.14;54.71;101370.16;1755169;81;21026;-67
2022/03/29 08:05:33;;;;;;;11.60;4.40;;;;;;;13.18;54.53;101370.50;1762653;80;21011;-67
2022/03/29 08:08:00;;;;;;;18.20;4.85;;;;;;;13.21;54.52;101365.22;1764075;81;22380;-67
2022/03/29 08:10:29;;;;;;;19.50;5.42;;;;;;;13.26;54.46;101355.50;1762963;81;21066;-66
2022/03/29 08:13:00;;;;;;;11.80;3.95;;;;;;;13.34;54.52;101354.87;1772274;81;21513;-67
2022/03/29 08:15:28;;;;;;;14.73;4.73;;;;;;;13.43;54.24;101355.97;1705917;83;21058;-66
2022/03/29 08:17:57;;;;;;;17.17;5.35;;;;;;;13.52;54.09;101351.81;1710996;83;21573;-66
2022/03/29 08:20:25;;;;;;;13.55;4.40;;;;;;;13.60;53.87;101356.44;1707209;83;21021;-66
2022/03/29 08:22:58;;;;;;;15.65;4.15;;;;;;;13.67;53.56;101351.45;1709324;83;21078;-68
2022/03/29 08:25:22;;;;;;;13.13;4.30;;;;;;;13.74;53.33;101343.88;1711141;83;21530;-66
2022/03/29 08:27:50;;;;;;;13.40;3.80;;;;;;;13.80;53.32;101337.17;1702004;83;21070;-65
2022/03/29 08:30:17;;;;;;;16.12;4.75;;;;;;;13.86;53.14;101335.70;1711178;83;21034;-65
2022/03/29 08:32:45;;;;;;;19.75;4.72;;;;;;;13.93;52.97;101337.24;1710970;83;21054;-65
2022/03/29 08:35:15;;;;;;;18.70;4.58;;;;;;;13.99;52.77;101333.19;1705768;83;21097;-66
2022/03/29 08:37:42;;;;;;;17.77;4.47;;;;;;;14.06;52.59;101329.48;1717367;83;21012;-66
2022/03/29 08:40:13;;;;;;;16.32;4.30;;;;;;;14.13;52.52;101326.27;1707980;83;21014;-65
2022/03/29 08:42:44;;;;;;;17.05;4.20;;;;;;;14.17;52.20;101318.30;1713505;83;21530;-66
2022/03/29 08:45:14;;;;;;;19.50;4.85;;;;;;;14.20;52.00;101320.80;1713688;83;21006;-67
2022/03/29 08:47:42;;;;;;;14.20;4.55;;;;;;;14.22;51.72;101313.77;1706633;83;21051;-65
2022/03/29 08:50:11;;;;;;;12.90;4.30;;;;;;;14.20;51.59;101310.34;1707964;83;21041;-65
2022/03/29 08:52:39;;;;;;;16.97;4.92;;;;;;;14.15;51.62;101308.76;1716435;83;21030;-65
2022/03/29 08:55:08;;;;;;;22.25;6.00;;;;;;;14.10;51.85;101304.95;1685304;85;21091;-64
2022/03/29 08:57:36;;;;;;;10.30;3.65;;;;;;;14.06;51.81;101304.63;1711671;83;21085;-65
2022/03/29 09:00:05;;;;;;;12.63;3.72;;;;;;;14.02;51.86;101300.38;1708956;83;21029;-65
2022/03/29 09:02:35;;;;;;;13.98;4.47;;;;;;;13.97;52.00;101301.41;1708870;82;21064;-65
2022/03/29 09:05:15;;;;;;;11.43;4.72;;;;;;;13.94;52.09;101302.34;1703802;83;21062;-65
2022/03/29 09:07:55;;;;;;;13.43;3.80;;;;;;;13.92;52.13;101304.15;1682716;83;21137;-64
2022/03/29 09:10:50;;;;;;;13.18;4.20;;;;;;;13.89;52.22;101297.23;1695429;83;21570;-65
2022/03/29 09:13:22;;;;;;;17.07;3.87;;;;;;;13.86;52.29;101299.08;1698078;83;21084;-64
2022/03/29 09:15:52;;;;;;;16.87;4.60;;;;;;;13.83;52.42;101296.53;1690437;83;21115;-65
2022/03/29 09:18:21;;;;;;;13.43;4.47;;;;;;;13.83;52.50;101310.48;1677448;83;21063;-64
2022/03/29 09:23:44;;;;;;;33.55;6.08;;;;;;;13.86;52.41;101289.48;1646016;85;21052;-64
2022/03/29 09:26:26;;;;;;;14.20;5.08;;;;;;;13.89;52.35;101288.52;1657054;85;21023;-65
2022/03/29 09:28:54;;;;;;;19.48;5.58;;;;;;;13.88;52.32;101281.59;1571563;90;21043;-65
2022/03/29 09:31:24;;;;;;;18.32;5.58;;;;;;;13.87;52.35;101275.92;1574081;91;21646;-65
2022/03/29 09:33:51;;;;;;;17.82;4.90;;;;;;;13.87;52.40;101269.39;1574359;91;21101;-65
2022/03/29 09:36:22;;;;;;;18.55;4.95;;;;;;;13.87;52.33;101272.00;1571701;91;21182;-65
2022/03/29 09:38:52;;;;;;;16.97;5.45;;;;;;;13.85;52.47;101265.95;1573577;91;21499;-65
2022/03/29 09:41:29;;;;;;;20.65;5.17;;;;;;;13.86;52.50;101266.38;1577748;90;21605;-64
2022/03/29 09:44:08;;;;;;;;;;;;;;;13.88;52.59;101259.34;1512060;95;21082;-65
2022/03/29 09:47:04;;;;;;;20.12;4.58;;;;;;;13.92;52.57;101262.29;1506137;94;20181;-66
2022/03/29 09:49:53;;;;;;;13.88;5.12;;;;;;;13.98;52.42;101260.81;1499938;94;21173;-65
2022/03/29 09:52:30;;;;;;;15.98;4.62;;;;;;;14.03;52.36;101251.53;1447430;98;21127;-66
2022/03/29 09:55:17;;;;;;;16.57;5.22;;;;;;;14.07;52.25;101243.56;1448844;98;21132;-65
2022/03/29 09:57:57;;;;;;;14.05;4.15;;;;;;;14.13;52.16;101246.00;1451175;98;21620;-66
2022/03/29 10:00:35;;;;;;;16.97;4.78;;;;;;;14.17;51.93;101242.39;1449250;98;21099;-66
2022/03/29 10:03:09;;;;;;;19.85;5.58;;;;;;;14.19;51.89;101240.59;1454619;98;21181;-65
2022/03/29 10:05:40;;;;;;;18.40;5.85;;;;;;;14.22;51.90;101237.03;1471158;93;21098;-65
2022/03/29 10:11:01;;;;;;;15.68;5.10;;;;;;;14.30;51.71;101228.06;1514735;92;21182;-65
2022/03/29 10:13:30;;;;;;;13.43;4.55;;;;;;;14.35;51.57;101233.16;1515713;93;21035;-66
2022/03/29 10:16:00;;;;;;;16.23;5.42;;;;;;;14.37;51.32;101229.61;1516467;92;21092;-66
2022/03/29 10:18:27;;;;;;;14.93;5.08;;;;;;;14.36;51.40;101222.64;1517003;93;21133;-66
2022/03/29 10:20:57;;;;;;;20.27;5.87;;;;;;;14.37;51.41;101215.20;1533504;90;21091;-66
2022/03/29 10:23:28;;;;;;;14.13;4.78;;;;;;;14.37;51.41;101216.52;1573977;90;21115;-66
2022/03/29 10:25:57;;;;;;;16.57;5.65;;;;;;;14.39;51.44;101225.19;1581497;86;21580;-65
2022/03/29 10:28:28;;;;;;;14.03;4.95;;;;;;;14.42;51.42;101212.02;1663693;82;21117;-66
2022/03/29 10:30:56;;;;;;;16.32;4.67;;;;;;;14.46;51.38;101214.94;1712077;82;21573;-66
2022/03/29 10:33:28;;;;;;;19.30;5.37;;;;;;;14.48;51.35;101203.97;1719177;82;21089;-64
2022/03/29 10:36:12;;;;;;;12.55;4.78;;;;;;;14.53;51.15;101198.56;1690815;84;21058;-66
2022/03/29 10:38:54;;;;;;;15.40;5.45;;;;;;;14.55;51.08;101191.08;1697493;83;21074;-65
2022/03/29 10:41:32;;;;;;;16.48;4.97;;;;;;;14.59;50.96;101190.52;1704888;83;21566;-65
2022/03/29 10:44:05;;;;;;;12.10;4.85;;;;;;;14.59;50.93;101191.38;1706401;83;21046;-66
2022/03/29 10:46:49;;;;;;;11.65;4.60;;;;;;;14.62;50.92;101188.69;1705013;83;20988;-63
2022/03/29 10:49:24;;;;;;;18.48;5.37;;;;;;;14.63;50.84;101179.91;1700996;83;21038;-65
2022/03/29 10:51:59;;;;;;;16.57;5.15;;;;;;;14.63;50.80;101175.97;1706370;83;21049;-66
2022/03/29 10:54:36;;;;;;;12.28;5.08;;;;;;;14.62;50.74;101175.59;1706278;83;21045;-66
2022/03/29 10:57:20;;;;;;;12.45;4.78;;;;;;;14.64;50.71;101173.78;1710922;83;21066;-67
2022/03/29 11:02:21;;;;;;;15.48;5.03;;;;;;;14.65;50.85;101154.52;1658223;85;21074;-66
2022/03/29 11:05:10;;;;;;;22.58;5.85;;;;;;;14.71;50.92;101155.24;1646289;85;21582;-67
2022/03/29 11:07:59;;;;;;;18.65;5.90;;;;;;;14.75;50.81;101145.94;1666909;86;21061;-67
2022/03/29 11:10:43;;;;;;;19.42;5.87;;;;;;;14.81;50.52;101137.00;1639041;87;21039;-67
2022/03/29 11:13:33;;;;;;;17.55;5.10;;;;;;;14.83;50.31;101134.75;1646153;87;21106;-66
2022/03/29 11:16:03;;;;;;;15.32;5.60;;;;;;;14.82;50.25;101128.26;1642264;87;21114;-66
2022/03/29 11:18:38;;;;;;;22.35;6.20;;;;;;;14.77;50.27;101124.92;1641550;87;21520;-65
2022/03/29 11:21:06;;;;;;;14.95;5.50;;;;;;;14.72;50.42;101123.75;1640960;87;21102;-62
2022/03/29 11:23:40;;;;;;;15.55;5.53;;;;;;;14.69;50.51;101118.16;1642799;87;21091;-63
2022/03/29 11:26:13;;;;;;;12.45;6.00;;;;;;;14.71;50.51;101113.33;1600871;88;21073;-61
2022/03/29 11:28:52;;;;;;;25.57;6.62;;;;;;;14.71;50.60;101105.47;1596007;88;21089;-62
2022/03/29 11:31:19;;;;;;;13.20;4.70;;;;;;;14.69;50.59;101106.37;1595361;88;21042;-63
2022/03/29 11:33:49;;;;;;;14.58;6.25;;;;;;;14.65;50.73;101095.59;1595478;88;21093;-62
2022/03/29 11:36:16;;;;;;;12.93;5.60;;;;;;;14.67;50.67;101087.70;1589527;88;21105;-63
2022/03/29 11:38:44;;;;;;;13.50;5.58;;;;;;;14.67;50.61;101078.06;1602460;88;21111;-64
2022/03/29 11:41:29;;;;;;;19.52;6.47;;;;;;;14.68;50.65;101080.23;1602344;89;21077;-61
2022/03/29 11:43:59;;;;;;;11.97;5.40;;;;;;;14.72;50.61;101067.87;1603412;88;21115;-63